createdAt,value
2017-11-14T00:00:01.409Z,1.10
2017-11-14T00:02:27.765Z,1.00
2017-11-14T00:04:54.144Z,1.10
2017-11-14T00:07:20.589Z,1.20
2017-11-14T00:09:46.979Z,1.00
2017-11-14T00:12:13.353Z,0.90
2017-11-14T00:14:41.164Z,0.90
2017-11-14T00:17:07.499Z,0.80
2017-11-14T00:19:34.617Z,0.90
2017-11-14T00:22:00.953Z,0.90
2017-11-14T00:24:27.330Z,1.00
2017-11-14T00:26:54.406Z,1.00
2017-11-14T00:29:20.765Z,0.90
2017-11-14T00:31:47.244Z,1.00
2017-11-14T00:34:14.545Z,0.90
2017-11-14T00:36:40.863Z,0.90
2017-11-14T00:39:07.209Z,0.90
2017-11-14T00:41:33.500Z,0.90
2017-11-14T00:43:59.889Z,0.90
2017-11-14T00:46:27.006Z,0.90
2017-11-14T00:48:53.361Z,0.90
2017-11-14T00:51:19.709Z,1.00
2017-11-14T00:53:46.049Z,1.00
2017-11-14T00:56:12.433Z,0.90
2017-11-14T00:58:38.749Z,0.90
2017-11-14T01:01:05.269Z,0.90
2017-11-14T01:03:31.605Z,0.90
2017-11-14T01:05:58.661Z,0.90
2017-11-14T01:08:25.081Z,0.90
2017-11-14T01:10:51.410Z,0.90
2017-11-14T01:13:17.771Z,0.90
2017-11-14T01:15:44.084Z,1.00
2017-11-14T01:18:10.449Z,1.00
2017-11-14T01:20:37.521Z,0.90
2017-11-14T01:23:04.632Z,0.90
2017-11-14T01:25:30.993Z,0.90
2017-11-14T01:27:57.341Z,0.90
2017-11-14T01:30:23.820Z,0.90
2017-11-14T01:32:50.905Z,1.00
2017-11-14T01:35:17.244Z,1.10
2017-11-14T01:37:43.575Z,1.30
2017-11-14T01:40:09.920Z,1.20
2017-11-14T01:42:37.032Z,0.90
2017-11-14T01:45:03.409Z,0.90
2017-11-14T01:47:29.772Z,0.90
2017-11-14T01:49:56.144Z,1.10
2017-11-14T01:52:22.532Z,0.80
2017-11-14T01:54:49.632Z,0.70
2017-11-14T01:57:16.016Z,0.70
2017-11-14T01:59:42.412Z,0.80
2017-11-14T02:02:08.856Z,0.80
2017-11-14T02:04:35.204Z,0.80
2017-11-14T02:07:01.597Z,0.80
2017-11-14T02:09:27.952Z,0.70
2017-11-14T02:11:54.380Z,0.70
2017-11-14T02:14:20.767Z,0.70
2017-11-14T02:16:47.868Z,0.60
2017-11-14T02:19:14.406Z,0.70
2017-11-14T02:21:40.787Z,0.60
2017-11-14T02:24:07.180Z,0.50
2017-11-14T02:26:33.623Z,0.50
2017-11-14T02:29:01.496Z,0.30
2017-11-14T02:31:27.900Z,0.40
2017-11-14T02:33:55.429Z,0.50
2017-11-14T02:36:21.864Z,0.50
2017-11-14T02:41:42.048Z,0.60
2017-11-14T02:44:08.493Z,0.70
2017-11-14T02:46:36.391Z,0.70
2017-11-14T02:49:02.809Z,0.80
2017-11-14T02:51:29.231Z,0.90
2017-11-14T02:53:55.604Z,0.90
2017-11-14T02:56:21.977Z,1.00
2017-11-14T02:58:48.324Z,1.00
2017-11-14T03:01:14.676Z,1.00
2017-11-14T03:03:41.825Z,1.10
2017-11-14T03:06:08.229Z,1.30
2017-11-14T03:08:35.509Z,1.10
2017-11-14T03:11:01.876Z,1.10
2017-11-14T03:13:28.260Z,1.10
2017-11-14T03:15:54.677Z,1.40
2017-11-14T03:18:21.072Z,1.20
2017-11-14T03:20:48.189Z,1.20
2017-11-14T03:23:14.545Z,1.20
2017-11-14T03:25:40.921Z,1.30
2017-11-14T03:28:07.361Z,1.20
2017-11-14T03:30:34.475Z,1.30
2017-11-14T03:33:00.901Z,1.20
2017-11-14T03:35:27.297Z,1.30
2017-11-14T03:37:53.652Z,1.60
2017-11-14T03:40:20.025Z,1.40
2017-11-14T03:42:47.176Z,1.30
2017-11-14T03:45:13.573Z,1.30
2017-11-14T03:47:39.960Z,1.30
2017-11-14T03:50:06.364Z,1.60
2017-11-14T03:52:32.839Z,1.30
2017-11-14T03:54:59.268Z,1.30
2017-11-14T03:57:25.660Z,1.30
2017-11-14T03:59:52.085Z,1.40
2017-11-14T04:02:18.479Z,1.40
2017-11-14T04:04:44.924Z,1.50
2017-11-14T04:07:11.283Z,1.50
2017-11-14T04:09:38.404Z,1.60
2017-11-14T04:12:04.775Z,1.50
2017-11-14T04:14:31.104Z,1.50
2017-11-14T04:16:57.492Z,1.60
2017-11-14T04:19:23.856Z,1.50
2017-11-14T04:21:50.217Z,1.80
2017-11-14T04:24:16.628Z,1.60
2017-11-14T04:26:43.777Z,1.50
2017-11-14T04:29:10.124Z,1.50
2017-11-14T04:31:36.485Z,1.50
2017-11-14T04:34:02.905Z,1.50
2017-11-14T04:36:29.236Z,1.60
2017-11-14T04:38:55.689Z,1.50
2017-11-14T04:41:22.025Z,1.50
2017-11-14T04:43:48.343Z,1.50
2017-11-14T04:46:14.688Z,1.60
2017-11-14T04:48:41.025Z,1.40
2017-11-14T04:51:07.404Z,1.60
2017-11-14T04:53:33.777Z,1.40
2017-11-14T04:56:00.868Z,1.30
2017-11-14T04:58:27.220Z,1.50
2017-11-14T05:00:53.585Z,1.50
2017-11-14T05:03:20.017Z,1.30
2017-11-14T05:05:46.364Z,1.30
2017-11-14T05:08:12.719Z,1.30
2017-11-14T05:10:39.075Z,1.30
2017-11-14T05:13:06.236Z,1.30
2017-11-14T05:15:32.568Z,1.30
2017-11-14T05:18:00.461Z,1.20
2017-11-14T05:20:26.798Z,1.30
2017-11-14T05:22:53.164Z,1.30
2017-11-14T05:25:20.240Z,1.40
2017-11-14T05:27:47.287Z,1.50
2017-11-14T05:30:13.709Z,1.50
2017-11-14T05:32:40.004Z,1.60
2017-11-14T05:35:06.345Z,1.70
2017-11-14T05:37:34.192Z,1.70
2017-11-14T05:40:00.577Z,2.00
2017-11-14T05:42:27.878Z,1.70
2017-11-14T05:44:54.257Z,1.60
2017-11-14T05:47:20.601Z,1.70
2017-11-14T05:49:46.991Z,1.80
2017-11-14T05:52:13.453Z,1.80
2017-11-14T05:54:39.770Z,1.90
2017-11-14T05:57:06.121Z,2.00
2017-11-14T05:59:32.569Z,2.10
2017-11-14T06:01:58.936Z,2.10
2017-11-14T06:04:26.728Z,2.20
2017-11-14T06:06:53.784Z,2.20
2017-11-14T06:09:20.876Z,2.30
2017-11-14T06:11:47.200Z,2.30
2017-11-14T06:14:13.658Z,2.30
2017-11-14T06:16:40.079Z,2.40
2017-11-14T06:19:06.534Z,2.50
2017-11-14T06:21:32.995Z,2.50
2017-11-14T06:24:00.752Z,2.60
2017-11-14T06:26:27.887Z,2.60
2017-11-14T06:28:54.397Z,2.60
2017-11-14T06:31:21.760Z,2.60
2017-11-14T06:33:48.229Z,2.60
2017-11-14T06:36:14.654Z,2.70
2017-11-14T06:38:41.505Z,2.70
2017-11-14T06:41:08.676Z,2.70
2017-11-14T06:43:35.228Z,2.70
2017-11-14T06:46:01.800Z,2.70
2017-11-14T06:48:28.316Z,2.70
2017-11-14T06:50:54.753Z,2.70
2017-11-14T06:53:21.263Z,2.70
2017-11-14T06:55:47.792Z,2.80
2017-11-14T06:58:14.245Z,2.80
2017-11-14T07:00:40.676Z,2.80
2017-11-14T07:03:07.668Z,2.80
2017-11-14T07:05:34.333Z,2.80
2017-11-14T07:08:01.007Z,2.90
2017-11-14T07:10:27.557Z,2.90
2017-11-14T07:12:53.982Z,3.00
2017-11-14T07:15:21.209Z,3.00
2017-11-14T07:17:47.684Z,3.00
2017-11-14T07:20:14.107Z,3.10
2017-11-14T07:22:41.281Z,3.10
2017-11-14T07:25:07.712Z,3.00
2017-11-14T07:27:34.120Z,3.20
2017-11-14T07:30:00.581Z,3.20
2017-11-14T07:32:27.817Z,3.20
2017-11-14T07:34:54.213Z,3.20
2017-11-14T07:37:21.356Z,3.20
2017-11-14T07:39:48.515Z,3.30
2017-11-14T07:42:15.913Z,3.40
2017-11-14T07:44:43.132Z,3.30
2017-11-14T07:47:10.290Z,3.40
2017-11-14T07:49:37.246Z,3.60
2017-11-14T07:52:04.310Z,3.60
2017-11-14T07:54:32.115Z,3.70
2017-11-14T07:56:59.064Z,3.70
2017-11-14T07:59:27.213Z,3.90
2017-11-14T08:01:53.696Z,4.00
2017-11-14T08:04:20.150Z,4.10
2017-11-14T08:06:46.564Z,3.90
2017-11-14T08:09:13.020Z,4.20
2017-11-14T08:11:40.180Z,4.50
2017-11-14T08:14:06.652Z,4.40
2017-11-14T08:16:33.068Z,4.70
2017-11-14T08:18:59.492Z,4.90
2017-11-14T08:21:25.966Z,4.80
2017-11-14T08:23:52.415Z,4.90
2017-11-14T08:26:18.893Z,4.90
2017-11-14T08:28:46.033Z,4.90
2017-11-14T08:31:13.192Z,5.00
2017-11-14T08:33:39.631Z,4.70
2017-11-14T08:36:06.256Z,5.00
2017-11-14T08:38:33.523Z,5.00
2017-11-14T08:40:59.888Z,5.00
2017-11-14T08:43:26.312Z,5.00
2017-11-14T08:45:53.469Z,5.10
2017-11-14T08:48:19.864Z,5.10
2017-11-14T08:50:46.333Z,5.20
2017-11-14T08:53:12.811Z,5.20
2017-11-14T08:55:39.224Z,5.20
2017-11-14T08:58:05.732Z,5.20
2017-11-14T09:00:32.964Z,5.50
2017-11-14T09:02:59.450Z,6.20
2017-11-14T09:05:25.901Z,5.50
2017-11-14T09:07:52.337Z,5.70
2017-11-14T09:10:19.622Z,5.90
2017-11-14T09:12:46.057Z,5.90
2017-11-14T09:15:15.459Z,5.90
2017-11-14T09:17:42.806Z,6.00
2017-11-14T09:20:09.305Z,6.00
2017-11-14T09:22:35.763Z,6.10
2017-11-14T09:25:02.362Z,6.20
2017-11-14T09:27:29.569Z,6.20
2017-11-14T09:29:56.079Z,6.20
2017-11-14T09:32:22.496Z,6.40
2017-11-14T09:34:48.970Z,6.40
2017-11-14T09:37:16.153Z,6.60
2017-11-14T09:39:42.655Z,6.60
2017-11-14T09:42:09.206Z,6.70
2017-11-14T09:44:37.078Z,7.00
2017-11-14T09:47:05.622Z,7.20
2017-11-14T09:49:32.078Z,7.20
2017-11-14T09:51:58.579Z,7.20
2017-11-14T09:54:25.761Z,7.20
2017-11-14T09:56:52.968Z,7.10
2017-11-14T09:59:19.473Z,7.10
2017-11-14T10:01:45.922Z,7.10
2017-11-14T10:04:12.413Z,7.10
2017-11-14T10:06:39.808Z,7.20
2017-11-14T10:09:09.969Z,7.40
2017-11-14T10:11:36.481Z,7.40
2017-11-14T10:14:02.971Z,7.50
2017-11-14T10:16:30.192Z,7.50
2017-11-14T10:18:56.662Z,7.50
2017-11-14T10:21:23.072Z,7.60
2017-11-14T10:23:50.309Z,7.70
2017-11-14T10:26:16.737Z,7.70
2017-11-14T10:28:43.196Z,7.70
2017-11-14T10:31:09.679Z,7.60
2017-11-14T10:33:36.833Z,7.70
2017-11-14T10:36:03.985Z,7.70
2017-11-14T10:38:31.257Z,7.70
2017-11-14T10:40:58.544Z,7.60
2017-11-14T10:43:25.695Z,7.60
2017-11-14T10:45:52.893Z,7.60
2017-11-14T10:48:19.305Z,7.60
2017-11-14T10:50:47.540Z,7.70
2017-11-14T10:53:13.992Z,7.70
2017-11-14T10:55:40.369Z,7.60
2017-11-14T10:58:06.843Z,7.60
2017-11-14T11:00:39.349Z,7.60
2017-11-14T11:03:05.983Z,7.70
2017-11-14T11:05:33.233Z,7.70
2017-11-14T11:07:59.760Z,7.70
2017-11-14T11:10:26.259Z,7.70
2017-11-14T11:12:53.495Z,8.00
2017-11-14T11:15:20.077Z,8.00
2017-11-14T11:17:46.721Z,8.10
2017-11-14T11:20:13.142Z,7.80
2017-11-14T11:22:39.630Z,8.20
2017-11-14T11:25:06.176Z,8.20
2017-11-14T11:27:32.658Z,8.20
2017-11-14T11:29:59.159Z,8.30
2017-11-14T11:32:25.625Z,8.50
2017-11-14T11:34:52.144Z,8.50
2017-11-14T11:37:18.588Z,8.70
2017-11-14T11:39:45.932Z,9.00
2017-11-14T11:42:12.541Z,8.90
2017-11-14T11:44:41.353Z,8.90
2017-11-14T11:47:08.879Z,8.90
2017-11-14T11:49:37.172Z,8.50
2017-11-14T11:52:04.368Z,8.90
2017-11-14T11:54:30.772Z,8.80
2017-11-14T11:56:57.964Z,9.00
2017-11-14T11:59:25.178Z,8.90
2017-11-14T12:01:51.697Z,8.80
2017-11-14T12:04:18.982Z,8.90
2017-11-14T12:06:46.133Z,8.90
2017-11-14T12:09:12.554Z,8.90
2017-11-14T12:11:39.741Z,9.00
2017-11-14T12:14:06.938Z,9.10
2017-11-14T12:16:34.102Z,9.10
2017-11-14T12:19:00.573Z,9.10
2017-11-14T12:21:27.116Z,9.20
2017-11-14T12:23:53.620Z,9.20
2017-11-14T12:26:20.067Z,9.30
2017-11-14T12:28:46.469Z,9.30
2017-11-14T12:31:12.885Z,9.40
2017-11-14T12:33:40.920Z,9.40
2017-11-14T12:36:07.760Z,9.40
2017-11-14T12:38:34.694Z,9.40
2017-11-14T12:41:01.754Z,9.50
2017-11-14T12:43:28.622Z,9.60
2017-11-14T12:45:55.152Z,9.60
2017-11-14T12:48:21.612Z,9.20
2017-11-14T12:50:48.017Z,9.70
2017-11-14T12:53:14.421Z,9.60
2017-11-14T12:55:40.878Z,9.50
2017-11-14T12:58:08.777Z,9.40
2017-11-14T13:00:35.208Z,9.40
2017-11-14T13:03:02.354Z,9.30
2017-11-14T13:05:28.698Z,9.30
2017-11-14T13:07:55.144Z,9.20
2017-11-14T13:10:21.540Z,9.20
2017-11-14T13:12:48.771Z,9.10
2017-11-14T13:15:15.309Z,9.00
2017-11-14T13:17:41.750Z,9.20
2017-11-14T13:20:08.928Z,9.30
2017-11-14T13:22:35.332Z,9.20
2017-11-14T13:25:01.805Z,9.40
2017-11-14T13:27:28.240Z,9.40
2017-11-14T13:29:55.489Z,9.50
2017-11-14T13:32:22.026Z,9.60
2017-11-14T13:34:48.489Z,9.50
2017-11-14T13:37:14.889Z,9.50
2017-11-14T13:39:41.281Z,9.40
2017-11-14T13:42:08.253Z,9.30
2017-11-14T13:44:34.804Z,9.20
2017-11-14T13:47:01.277Z,9.20
2017-11-14T13:49:28.873Z,9.20
2017-11-14T13:51:55.310Z,9.20
2017-11-14T13:54:21.720Z,9.10
2017-11-14T13:56:48.129Z,9.10
2017-11-14T13:59:14.570Z,9.00
2017-11-14T14:01:40.988Z,9.50
2017-11-14T14:04:07.406Z,9.00
2017-11-14T14:06:33.873Z,9.00
2017-11-14T14:09:00.329Z,9.00
2017-11-14T14:11:26.726Z,9.00
2017-11-14T14:13:53.126Z,9.00
2017-11-14T14:16:19.512Z,9.00
2017-11-14T14:18:45.995Z,8.70
2017-11-14T14:21:13.152Z,8.90
2017-11-14T14:23:39.567Z,8.90
2017-11-14T14:26:05.953Z,8.90
2017-11-14T14:28:35.320Z,8.90
2017-11-14T14:31:01.830Z,9.00
2017-11-14T14:33:28.302Z,8.90
2017-11-14T14:35:54.706Z,8.90
2017-11-14T14:38:21.790Z,8.90
2017-11-14T14:40:48.975Z,9.00
2017-11-14T14:43:15.576Z,9.00
2017-11-14T14:45:42.740Z,8.90
2017-11-14T14:48:09.953Z,8.90
2017-11-14T14:50:36.333Z,8.90
2017-11-14T14:53:03.256Z,8.90
2017-11-14T14:55:30.447Z,8.80
2017-11-14T14:57:57.588Z,8.80
2017-11-14T15:00:24.777Z,8.80
2017-11-14T15:02:51.205Z,8.80
2017-11-14T15:05:19.405Z,8.60
2017-11-14T15:07:49.289Z,8.70
2017-11-14T15:10:18.460Z,8.60
2017-11-14T15:12:46.064Z,8.70
2017-11-14T15:15:13.657Z,8.60
2017-11-14T15:17:41.760Z,8.50
2017-11-14T15:20:09.251Z,8.60
2017-11-14T15:22:38.325Z,8.50
2017-11-14T15:25:05.728Z,8.80
2017-11-14T15:27:33.032Z,8.70
2017-11-14T15:30:00.386Z,8.60
2017-11-14T15:32:27.026Z,8.50
2017-11-14T15:34:54.221Z,8.50
2017-11-14T15:37:21.385Z,8.50
2017-11-14T15:39:47.888Z,8.40
2017-11-14T15:42:14.339Z,8.40
2017-11-14T15:44:40.853Z,8.40
2017-11-14T15:47:07.461Z,8.00
2017-11-14T15:49:33.945Z,8.40
2017-11-14T15:52:01.387Z,8.40
2017-11-14T15:54:30.025Z,8.40
2017-11-14T15:56:56.596Z,8.40
2017-11-14T15:59:23.112Z,8.40
2017-11-14T16:01:49.614Z,8.30
2017-11-14T16:04:16.097Z,8.30
2017-11-14T16:06:43.295Z,8.30
2017-11-14T16:09:09.765Z,8.30
2017-11-14T16:11:36.257Z,8.30
2017-11-14T16:14:03.446Z,8.40
2017-11-14T16:16:29.900Z,8.30
2017-11-14T16:18:57.039Z,8.30
2017-11-14T16:21:23.402Z,8.30
2017-11-14T16:23:50.552Z,8.20
2017-11-14T16:26:16.929Z,8.20
2017-11-14T16:28:44.057Z,8.30
2017-11-14T16:31:10.418Z,8.20
2017-11-14T16:33:37.526Z,8.30
2017-11-14T16:36:03.924Z,8.30
2017-11-14T16:38:30.332Z,7.90
2017-11-14T16:40:56.721Z,8.10
2017-11-14T16:43:23.823Z,8.20
2017-11-14T16:45:50.240Z,8.10
2017-11-14T16:48:16.612Z,8.20
2017-11-14T16:50:42.981Z,8.10
2017-11-14T16:53:09.341Z,8.10
2017-11-14T16:55:35.717Z,8.10
2017-11-14T16:58:02.125Z,8.10
2017-11-14T17:00:28.771Z,8.10
2017-11-14T17:02:55.151Z,8.00
2017-11-14T17:05:22.285Z,8.10
2017-11-14T17:07:48.656Z,8.10
2017-11-14T17:10:15.762Z,8.10
2017-11-14T17:12:42.121Z,8.10
2017-11-14T17:15:08.966Z,8.10
2017-11-14T17:17:35.326Z,8.10
2017-11-14T17:20:03.203Z,8.00
2017-11-14T17:22:30.294Z,8.00
2017-11-14T17:24:56.653Z,8.00
2017-11-14T17:27:23.226Z,8.00
2017-11-14T17:29:49.720Z,8.00
2017-11-14T17:32:16.038Z,8.00
2017-11-14T17:34:42.429Z,8.00
2017-11-14T17:37:08.758Z,8.00
2017-11-14T17:39:35.101Z,8.00
2017-11-14T17:42:01.429Z,7.90
2017-11-14T17:44:28.505Z,8.00
2017-11-14T17:46:55.593Z,8.00
2017-11-14T17:49:21.969Z,7.90
2017-11-14T17:51:49.077Z,8.00
2017-11-14T17:54:15.413Z,7.90
2017-11-14T17:56:41.784Z,7.90
2017-11-14T17:59:08.115Z,7.90
2017-11-14T18:01:34.493Z,7.90
2017-11-14T18:04:00.865Z,7.90
2017-11-14T18:06:27.977Z,7.90
2017-11-14T18:08:54.349Z,7.80
2017-11-14T18:11:20.708Z,7.90
2017-11-14T18:13:47.081Z,7.70
2017-11-14T18:16:13.431Z,7.90
2017-11-14T18:18:39.816Z,7.80
2017-11-14T18:21:06.165Z,7.80
2017-11-14T18:23:32.524Z,7.90
2017-11-14T18:25:58.889Z,7.80
2017-11-14T18:28:25.257Z,7.80
2017-11-14T18:30:51.836Z,7.60
2017-11-14T18:33:18.182Z,7.80
2017-11-14T18:35:44.549Z,7.70
2017-11-14T18:38:11.637Z,7.70
2017-11-14T18:40:38.025Z,7.70
2017-11-14T18:43:04.357Z,7.70
2017-11-14T18:45:30.757Z,7.70
2017-11-14T18:47:57.158Z,7.70
2017-11-14T18:50:24.306Z,7.80
2017-11-14T18:52:50.893Z,7.70
2017-11-14T18:55:17.988Z,7.80
2017-11-14T18:57:44.378Z,7.70
2017-11-14T19:00:10.808Z,7.70
2017-11-14T19:02:37.142Z,7.70
2017-11-14T19:05:04.253Z,7.60
2017-11-14T19:07:30.821Z,7.60
2017-11-14T19:09:57.155Z,7.60
2017-11-14T19:12:23.517Z,7.70
2017-11-14T19:14:49.848Z,7.70
2017-11-14T19:17:16.208Z,7.60
2017-11-14T19:19:42.557Z,7.70
2017-11-14T19:22:08.928Z,7.70
2017-11-14T19:24:35.277Z,7.70
2017-11-14T19:27:01.617Z,7.70
2017-11-14T19:29:27.973Z,7.70
2017-11-14T19:31:54.341Z,7.70
2017-11-14T19:34:21.431Z,7.80
2017-11-14T19:36:47.808Z,7.80
2017-11-14T19:39:15.642Z,7.70
2017-11-14T19:41:41.969Z,7.70
2017-11-14T19:44:08.332Z,7.80
2017-11-14T19:46:34.661Z,7.80
2017-11-14T19:49:01.027Z,7.80
2017-11-14T19:51:27.376Z,7.80
2017-11-14T19:53:53.766Z,7.80
2017-11-14T19:56:20.076Z,7.80
2017-11-14T19:58:46.452Z,7.80
2017-11-14T20:01:13.545Z,7.80
2017-11-14T20:03:39.893Z,7.80
2017-11-14T20:06:06.249Z,7.80
2017-11-14T20:08:32.597Z,7.80
2017-11-14T20:10:59.037Z,7.80
2017-11-14T20:13:25.446Z,7.80
2017-11-14T20:15:51.826Z,7.90
2017-11-14T20:18:18.164Z,7.90
2017-11-14T20:20:44.584Z,7.90
2017-11-14T20:23:10.936Z,7.80
2017-11-14T20:25:39.064Z,7.80
2017-11-14T20:28:05.397Z,7.90
2017-11-14T20:30:32.234Z,7.90
2017-11-14T20:32:58.577Z,7.90
2017-11-14T20:35:24.896Z,7.90
2017-11-14T20:37:51.476Z,7.90
2017-11-14T20:40:17.794Z,8.80
2017-11-14T20:42:44.176Z,7.80
2017-11-14T20:45:10.501Z,7.80
2017-11-14T20:47:36.865Z,7.90
2017-11-14T20:50:03.987Z,7.90
2017-11-14T20:52:30.337Z,7.80
2017-11-14T20:54:56.665Z,7.90
2017-11-14T20:57:23.261Z,7.90
2017-11-14T20:59:50.389Z,7.90
2017-11-14T21:02:17.529Z,7.90
2017-11-14T21:04:43.884Z,7.90
2017-11-14T21:07:10.217Z,7.90
2017-11-14T21:09:36.765Z,7.90
2017-11-14T21:12:03.132Z,7.90
2017-11-14T21:14:29.493Z,7.70
2017-11-14T21:16:55.844Z,7.50
2017-11-14T21:19:22.253Z,7.90
2017-11-14T21:21:48.663Z,7.90
2017-11-14T21:24:16.585Z,7.80
2017-11-14T21:26:42.923Z,7.80
2017-11-14T21:29:09.278Z,7.70
2017-11-14T21:31:35.629Z,7.60
2017-11-14T21:34:02.765Z,7.50
2017-11-14T21:36:29.121Z,7.50
2017-11-14T21:38:55.458Z,7.30
2017-11-14T21:41:21.805Z,7.40
2017-11-14T21:43:48.176Z,7.40
2017-11-14T21:46:14.525Z,7.40
2017-11-14T21:48:40.889Z,7.40
2017-11-14T21:51:07.964Z,7.40
2017-11-14T21:53:35.060Z,7.40
2017-11-14T21:56:01.631Z,7.40
2017-11-14T21:58:28.733Z,7.40
2017-11-14T22:00:55.081Z,7.30
2017-11-14T22:03:21.621Z,7.30
2017-11-14T22:05:47.948Z,7.40
2017-11-14T22:08:15.759Z,7.20
2017-11-14T22:10:42.101Z,7.20
2017-11-14T22:13:08.449Z,7.30
2017-11-14T22:15:34.772Z,7.30
2017-11-14T22:18:01.176Z,7.20
2017-11-14T22:20:28.270Z,7.00
2017-11-14T22:22:55.357Z,7.00
2017-11-14T22:25:21.712Z,6.90
2017-11-14T22:27:48.016Z,6.90
2017-11-14T22:30:14.380Z,6.90
2017-11-14T22:32:40.706Z,6.90
2017-11-14T22:35:07.101Z,6.70
2017-11-14T22:37:33.420Z,6.90
2017-11-14T22:39:59.777Z,6.80
2017-11-14T22:42:26.114Z,6.80
2017-11-14T22:44:52.776Z,6.80
2017-11-14T22:47:19.122Z,6.80
2017-11-14T22:49:45.461Z,6.90
2017-11-14T22:52:11.821Z,6.90
2017-11-14T22:54:38.165Z,6.80
2017-11-14T22:57:05.496Z,6.80
2017-11-14T22:59:31.840Z,6.80
2017-11-14T23:01:58.199Z,6.80
2017-11-14T23:04:24.499Z,6.80
2017-11-14T23:06:50.841Z,6.80
2017-11-14T23:09:17.233Z,6.80
2017-11-14T23:11:45.069Z,6.70
2017-11-14T23:14:11.421Z,6.70
2017-11-14T23:16:37.849Z,6.80
2017-11-14T23:19:04.198Z,6.80
2017-11-14T23:21:30.521Z,6.80
2017-11-14T23:23:56.872Z,6.80
2017-11-14T23:26:23.193Z,6.80
2017-11-14T23:28:50.324Z,6.80
2017-11-14T23:31:16.629Z,6.80
2017-11-14T23:33:42.992Z,6.80
2017-11-14T23:36:09.321Z,6.80
2017-11-14T23:38:35.673Z,6.80
2017-11-14T23:41:01.984Z,6.80
2017-11-14T23:43:28.324Z,6.80
2017-11-14T23:45:54.676Z,6.80
2017-11-14T23:48:21.004Z,6.80
2017-11-14T23:50:47.368Z,6.80
2017-11-14T23:53:13.683Z,6.80
2017-11-14T23:55:40.269Z,6.80
2017-11-14T23:58:06.580Z,6.80
